Time;durP1;ratioP1;P1;durP2;ratioP2;P2;SDS_P1;SDS_P2;PMS_P1;PMS_P2;Temp;Humidity;BMP_temperature;BMP_pressure;BME280_temperature;BME280_humidity;BME280_pressure;Samples;Min_cycle;Max_cycle;Signal;HPM_P1;HPM_P2
2022/08/29 00:00:55;;;;;;;6.50;4.18;;;16.50;77.90;;;;;;4118842;28;21182;-84
2022/08/29 00:02:58;;;;;;;6.63;3.83;;;16.50;77.90;;;;;;4104441;28;20110;-85
2022/08/29 00:04:59;;;;;;;9.50;4.00;;;16.50;78.00;;;;;;4116744;28;20026;-86
2022/08/29 00:07:00;;;;;;;7.40;3.55;;;16.50;78.00;;;;;;4116451;28;20026;-86
2022/08/29 00:09:01;;;;;;;7.75;3.40;;;16.50;78.00;;;;;;4120022;28;20096;-86
2022/08/29 00:11:02;;;;;;;9.30;4.43;;;16.50;78.00;;;;;;4115804;28;20027;-85
2022/08/29 00:13:04;;;;;;;4.97;3.40;;;16.50;78.80;;;;;;4118615;28;20168;-85
2022/08/29 00:15:07;;;;;;;6.07;3.77;;;16.50;78.00;;;;;;4118668;28;20039;-84
2022/08/29 00:17:08;;;;;;;5.07;3.58;;;16.50;78.10;;;;;;4118035;28;20034;-84
2022/08/29 00:19:08;;;;;;;6.25;3.03;;;16.50;78.10;;;;;;4112330;28;20413;-85
2022/08/29 00:21:09;;;;;;;5.80;3.33;;;16.50;78.10;;;;;;4117619;28;20029;-84
2022/08/29 00:23:10;;;;;;;7.07;4.00;;;16.50;78.20;;;;;;4117653;28;20081;-85
2022/08/29 00:25:13;;;;;;;6.70;3.47;;;16.50;78.20;;;;;;4119119;28;20390;-85
2022/08/29 00:27:14;;;;;;;9.15;3.08;;;16.50;78.20;;;;;;4119738;28;20045;-84
2022/08/29 00:29:14;;;;;;;5.90;3.30;;;16.50;78.10;;;;;;4120918;28;21191;-85
2022/08/29 00:31:15;;;;;;;10.70;3.50;;;16.50;78.20;;;;;;4120420;28;20026;-84
2022/08/29 00:33:16;;;;;;;12.57;3.10;;;16.50;78.10;;;;;;4118431;28;20049;-84
2022/08/29 00:35:23;;;;;;;8.18;3.30;;;16.50;78.10;;;;;;4114894;28;20394;-85
2022/08/29 00:37:24;;;;;;;5.07;2.80;;;16.50;78.10;;;;;;4107414;28;20045;-84
2022/08/29 00:39:25;;;;;;;5.38;2.70;;;16.50;78.00;;;;;;4115596;28;20569;-85
2022/08/29 00:41:26;;;;;;;7.45;2.78;;;16.50;78.00;;;;;;4119087;28;20109;-85
2022/08/29 00:43:32;;;;;;;6.03;2.88;;;16.50;78.00;;;;;;4111639;28;20541;-85
2022/08/29 00:45:34;;;;;;;6.75;3.00;;;16.50;78.00;;;;;;4115428;28;20026;-85
2022/08/29 00:47:39;;;;;;;5.97;2.90;;;16.50;77.90;;;;;;4114635;28;20027;-86
2022/08/29 00:49:46;;;;;;;7.18;3.28;;;16.50;77.90;;;;;;4121005;28;20037;-85
2022/08/29 00:51:47;;;;;;;7.50;2.80;;;16.50;77.80;;;;;;4118787;28;20035;-86
2022/08/29 00:53:53;;;;;;;5.50;2.97;;;16.50;77.70;;;;;;4119017;28;20022;-85
2022/08/29 00:55:53;;;;;;;5.13;2.78;;;16.50;77.70;;;;;;4117333;28;20108;-84
2022/08/29 00:57:58;;;;;;;4.72;2.67;;;16.50;77.70;;;;;;4115243;28;20061;-85
2022/08/29 01:00:00;;;;;;;4.68;2.70;;;16.50;77.70;;;;;;4116218;28;20137;-85
2022/08/29 01:02:03;;;;;;;7.10;2.92;;;16.40;77.60;;;;;;4120354;28;20147;-85
2022/08/29 01:04:04;;;;;;;;;;;16.50;77.70;;;;;;4121547;28;20053;-83
2022/08/29 01:06:05;;;;;;;5.70;2.90;;;16.50;77.70;;;;;;4118634;28;19910;-84
2022/08/29 01:08:06;;;;;;;5.97;2.80;;;16.50;77.40;;;;;;4116734;28;20517;-85
2022/08/29 01:10:08;;;;;;;6.65;3.50;;;16.40;77.40;;;;;;4115369;28;20031;-85
2022/08/29 01:12:15;;;;;;;8.73;2.40;;;16.40;77.40;;;;;;4118951;28;20034;-84
2022/08/29 01:14:18;;;;;;;7.47;2.88;;;16.40;77.50;;;;;;4131896;28;20832;-85
2022/08/29 01:16:20;;;;;;;6.47;3.15;;;16.40;77.50;;;;;;4133895;28;20010;-84
2022/08/29 01:18:23;;;;;;;8.38;2.63;;;16.40;77.50;;;;;;4131562;28;20039;-85
2022/08/29 01:20:49;;;;;;;11.02;2.45;;;16.40;77.50;;;;;;4127933;28;20064;-84
2022/08/29 01:23:27;;;;;;;6.55;2.97;;;16.40;77.50;;;;;;4116911;28;20097;-86
2022/08/29 01:25:37;;;;;;;4.88;2.50;;;16.40;77.50;;;;;;4129468;28;20014;-84
2022/08/29 01:27:42;;;;;;;4.57;2.50;;;16.40;77.20;;;;;;4122466;28;20548;-83
2022/08/29 01:29:42;;;;;;;4.50;2.30;;;16.30;77.00;;;;;;4114606;28;20030;-85
2022/08/29 01:31:48;;;;;;;2.88;2.28;;;16.30;76.90;;;;;;4108199;28;20026;-84
2022/08/29 01:33:58;;;;;;;3.92;2.53;;;16.20;76.80;;;;;;4116394;28;20046;-85
2022/08/29 01:35:58;;;;;;;7.32;2.70;;;16.30;76.80;;;;;;4122763;28;20108;-85
2022/08/29 01:37:59;;;;;;;4.55;2.35;;;16.20;76.70;;;;;;4123988;28;20023;-84
2022/08/29 01:40:00;;;;;;;6.72;2.75;;;16.20;76.70;;;;;;4124451;28;20042;-84
2022/08/29 01:42:06;;;;;;;5.97;2.63;;;16.10;76.60;;;;;;4120069;28;20034;-85
2022/08/29 01:44:10;;;;;;;6.05;2.88;;;16.10;76.70;;;;;;4120390;28;20030;-84
2022/08/29 01:46:14;;;;;;;6.50;2.40;;;16.10;76.70;;;;;;4119430;28;20022;-85
2022/08/29 01:48:15;;;;;;;4.65;2.25;;;16.00;76.60;;;;;;4126799;28;20054;-85
2022/08/29 01:50:16;;;;;;;5.63;2.60;;;16.00;76.60;;;;;;4122694;28;20030;-85
2022/08/29 01:52:17;;;;;;;6.50;2.70;;;16.00;76.70;;;;;;4128538;28;20096;-84
2022/08/29 01:54:20;;;;;;;5.13;2.60;;;15.90;76.60;;;;;;4120925;28;20078;-84
2022/08/29 01:56:24;;;;;;;9.40;2.72;;;15.90;76.80;;;;;;4124033;28;20037;-83
2022/08/29 01:58:24;;;;;;;8.95;3.08;;;15.90;76.80;;;;;;4122141;28;20078;-82
2022/08/29 02:00:25;;;;;;;6.07;2.67;;;15.90;76.90;;;;;;4140248;28;20528;-83
2022/08/29 02:02:27;;;;;;;5.03;2.50;;;15.80;77.00;;;;;;4134037;28;20050;-84
2022/08/29 02:04:28;;;;;;;5.27;2.67;;;15.80;77.20;;;;;;4131509;28;20044;-84
2022/08/29 02:06:29;;;;;;;8.73;2.60;;;15.80;77.50;;;;;;4105793;28;20026;-83
2022/08/29 02:08:30;;;;;;;8.10;2.60;;;15.80;77.60;;;;;;4123114;28;20034;-82
2022/08/29 02:10:31;;;;;;;7.72;2.40;;;15.80;77.70;;;;;;4123122;28;20386;-84
2022/08/29 02:12:32;;;;;;;4.18;2.20;;;15.80;77.90;;;;;;4114885;28;20026;-84
2022/08/29 02:14:34;;;;;;;12.10;2.55;;;15.80;78.00;;;;;;4117160;28;20045;-84
2022/08/29 02:16:35;;;;;;;5.40;2.30;;;15.70;78.00;;;;;;4114183;28;20030;-83
2022/08/29 02:18:36;;;;;;;3.22;2.13;;;15.70;78.20;;;;;;4109004;28;20034;-83
2022/08/29 02:20:37;;;;;;;4.85;2.80;;;15.80;78.20;;;;;;4130128;28;20041;-83
2022/08/29 02:22:38;;;;;;;4.13;2.25;;;15.80;78.20;;;;;;4120863;28;20034;-85
2022/08/29 02:24:39;;;;;;;6.35;2.25;;;15.80;78.30;;;;;;4116315;28;20041;-84
2022/08/29 02:26:40;;;;;;;4.07;2.40;;;15.80;78.20;;;;;;4115275;28;20026;-84
2022/08/29 02:28:41;;;;;;;3.05;1.95;;;15.80;78.20;;;;;;4116592;28;20023;-83
2022/08/29 02:30:46;;;;;;;5.05;2.53;;;15.80;79.00;;;;;;4116203;28;20026;-84
2022/08/29 02:32:47;;;;;;;2.80;2.20;;;15.80;78.20;;;;;;4128314;28;20034;-83
2022/08/29 02:34:48;;;;;;;5.80;2.42;;;15.80;78.20;;;;;;4118053;28;20038;-84
2022/08/29 02:36:49;;;;;;;3.05;2.53;;;15.80;78.10;;;;;;4116987;28;20023;-85
2022/08/29 02:38:49;;;;;;;5.35;1.92;;;15.80;78.20;;;;;;4118950;28;20036;-84
2022/08/29 02:40:50;;;;;;;2.20;2.00;;;15.80;78.20;;;;;;4119666;28;20030;-85
2022/08/29 02:42:52;;;;;;;4.63;1.60;;;15.80;78.10;;;;;;4117934;28;20038;-85
2022/08/29 02:44:53;;;;;;;6.15;2.20;;;15.80;78.10;;;;;;4116740;28;20549;-85
2022/08/29 02:46:53;;;;;;;3.15;2.00;;;15.80;78.10;;;;;;4116438;28;20022;-83
2022/08/29 02:48:54;;;;;;;4.18;1.95;;;15.80;78.10;;;;;;4119883;28;20414;-85
2022/08/29 02:50:57;;;;;;;3.35;1.92;;;15.80;78.10;;;;;;4121321;28;20027;-85
2022/08/29 02:52:58;;;;;;;;;;;15.80;78.10;;;;;;4118972;28;20402;-84
2022/08/29 02:54:59;;;;;;;4.38;1.98;;;15.90;78.10;;;;;;4115835;28;19914;-84
2022/08/29 02:57:00;;;;;;;3.03;1.70;;;15.90;77.80;;;;;;4118494;28;20050;-85
2022/08/29 02:59:00;;;;;;;2.72;1.63;;;15.90;77.90;;;;;;4136406;28;20038;-85
2022/08/29 03:01:02;;;;;;;4.47;1.70;;;15.90;78.00;;;;;;4122796;28;20037;-85
2022/08/29 03:03:03;;;;;;;5.13;1.58;;;15.90;78.00;;;;;;4120786;28;20379;-84
2022/08/29 03:05:05;;;;;;;4.43;1.42;;;15.90;77.80;;;;;;4117722;28;20041;-85
2022/08/29 03:07:06;;;;;;;3.90;1.40;;;15.90;77.70;;;;;;4121740;28;20034;-84
2022/08/29 03:09:07;;;;;;;4.93;1.60;;;15.90;77.80;;;;;;4124469;28;20042;-83
2022/08/29 03:11:08;;;;;;;3.63;1.45;;;15.90;77.60;;;;;;4120177;28;20026;-84
2022/08/29 03:13:09;;;;;;;2.97;1.73;;;15.90;77.50;;;;;;4117533;28;20094;-84
2022/08/29 03:15:10;;;;;;;5.68;1.60;;;15.90;77.20;;;;;;4121373;28;20037;-84
2022/08/29 03:17:11;;;;;;;3.83;1.60;;;15.90;77.00;;;;;;4116257;28;20766;-84
2022/08/29 03:19:11;;;;;;;3.25;1.40;;;15.90;76.90;;;;;;4117442;28;21243;-84
2022/08/29 03:21:21;;;;;;;2.88;1.80;;;15.90;76.90;;;;;;4116951;28;20027;-84
2022/08/29 03:23:22;;;;;;;6.68;1.55;;;15.90;76.80;;;;;;4117017;28;20031;-84
2022/08/29 03:25:23;;;;;;;5.15;1.42;;;15.90;76.70;;;;;;4113686;28;20042;-84
2022/08/29 03:27:24;;;;;;;4.38;1.98;;;15.90;76.70;;;;;;4118988;28;20038;-84
2022/08/29 03:29:24;;;;;;;5.05;1.58;;;15.90;76.60;;;;;;4116442;28;20091;-84
2022/08/29 03:31:25;;;;;;;7.47;2.28;;;15.90;76.50;;;;;;4114719;28;20069;-85
2022/08/29 03:33:26;;;;;;;2.30;1.50;;;15.90;76.40;;;;;;4108226;28;20503;-84
2022/08/29 03:35:27;;;;;;;3.10;1.90;;;15.90;76.40;;;;;;4120342;28;20034;-84
2022/08/29 03:37:27;;;;;;;4.70;1.75;;;15.90;76.40;;;;;;4121296;28;20038;-84
2022/08/29 03:39:28;;;;;;;4.18;1.88;;;15.90;76.40;;;;;;4119438;28;20066;-84
2022/08/29 03:41:29;;;;;;;2.92;1.60;;;15.90;76.40;;;;;;4113154;28;20042;-83
2022/08/29 03:43:30;;;;;;;4.75;1.80;;;15.90;76.40;;;;;;4106974;28;20033;-84
2022/08/29 03:45:30;;;;;;;5.32;1.80;;;15.90;76.40;;;;;;4115857;28;20109;-85
2022/08/29 03:47:31;;;;;;;10.15;2.20;;;15.90;76.50;;;;;;4116960;28;20034;-84
2022/08/29 03:49:33;;;;;;;5.72;1.95;;;15.90;76.50;;;;;;4106798;28;20055;-84
2022/08/29 03:51:35;;;;;;;6.93;2.20;;;15.90;76.60;;;;;;4116882;28;20102;-83
2022/08/29 03:53:36;;;;;;;3.13;1.77;;;15.80;76.50;;;;;;4116793;28;20452;-84
2022/08/29 03:55:37;;;;;;;4.88;1.90;;;15.90;77.40;;;;;;4130722;28;20033;-84
2022/08/29 03:57:38;;;;;;;4.90;1.98;;;15.80;76.60;;;;;;4116231;28;20030;-84
2022/08/29 03:59:39;;;;;;;7.32;2.35;;;15.80;76.60;;;;;;4119334;28;20540;-84
2022/08/29 04:01:40;;;;;;;5.00;2.17;;;15.80;76.70;;;;;;4103869;28;20035;-84
2022/08/29 04:03:40;;;;;;;4.70;2.20;;;15.80;76.70;;;;;;4128211;28;20042;-84
2022/08/29 04:05:41;;;;;;;5.40;2.00;;;15.80;76.70;;;;;;4119856;28;20030;-84
2022/08/29 04:07:56;;;;;;;6.65;2.22;;;15.80;76.80;;;;;;4115184;28;20018;-84
2022/08/29 04:09:58;;;;;;;5.90;1.98;;;15.80;76.90;;;;;;4115220;28;20509;-84
2022/08/29 04:12:19;;;;;;;4.63;2.08;;;15.80;76.80;;;;;;4113944;28;20522;-84
2022/08/29 04:14:41;;;;;;;4.43;1.98;;;15.80;76.90;;;;;;4117671;28;20026;-84
2022/08/29 04:17:03;;;;;;;9.13;1.77;;;15.80;76.90;;;;;;4114216;28;20031;-84
2022/08/29 04:19:23;;;;;;;6.57;2.00;;;15.80;76.90;;;;;;4119735;28;20069;-84
2022/08/29 04:21:44;;;;;;;3.03;1.60;;;15.80;77.00;;;;;;4119511;28;20545;-83
2022/08/29 04:24:05;;;;;;;5.68;1.60;;;15.80;77.00;;;;;;4120830;28;20659;-85
2022/08/29 04:26:26;;;;;;;3.63;1.52;;;15.80;77.10;;;;;;4110862;28;20069;-84
2022/08/29 04:28:46;;;;;;;2.47;1.67;;;15.80;77.10;;;;;;4132549;28;20676;-83
2022/08/29 04:31:18;;;;;;;7.22;2.15;;;15.80;77.00;;;;;;4121709;28;20136;-84
2022/08/29 04:33:39;;;;;;;2.58;1.60;;;15.80;77.00;;;;;;4114370;28;20487;-84
2022/08/29 04:36:00;;;;;;;7.35;1.58;;;15.80;76.90;;;;;;4114774;28;20030;-84
2022/08/29 04:38:21;;;;;;;4.10;1.90;;;15.80;76.90;;;;;;4112948;28;20034;-84
2022/08/29 04:40:41;;;;;;;5.43;1.52;;;15.80;77.00;;;;;;4116461;28;20502;-84
2022/08/29 04:43:02;;;;;;;4.82;1.70;;;15.80;77.00;;;;;;4116995;28;20502;-84
2022/08/29 04:45:06;;;;;;;3.28;1.58;;;15.80;77.00;;;;;;4117581;28;20589;-83
2022/08/29 04:47:07;;;;;;;3.38;1.63;;;15.90;77.10;;;;;;4122571;28;21295;-84
2022/08/29 04:49:08;;;;;;;4.53;1.80;;;15.80;76.90;;;;;;4119058;28;20522;-84
2022/08/29 04:51:09;;;;;;;4.85;1.83;;;15.90;77.10;;;;;;4116884;28;20423;-85
2022/08/29 04:53:10;;;;;;;5.50;1.80;;;15.80;76.90;;;;;;4117509;28;20466;-86
2022/08/29 04:55:11;;;;;;;5.03;2.05;;;15.90;77.00;;;;;;4115250;28;20018;-84
2022/08/29 04:57:12;;;;;;;4.32;2.10;;;15.90;77.00;;;;;;4119405;28;20027;-84
2022/08/29 04:59:14;;;;;;;3.45;1.77;;;15.80;76.90;;;;;;4111629;28;20041;-83
2022/08/29 05:01:18;;;;;;;5.20;2.53;;;15.90;76.90;;;;;;4116060;28;20608;-83
2022/08/29 05:03:19;;;;;;;7.60;1.83;;;15.90;76.90;;;;;;4120679;28;20034;-83
2022/08/29 05:05:20;;;;;;;2.58;1.42;;;15.90;76.90;;;;;;4110759;28;20080;-83
2022/08/29 05:07:24;;;;;;;9.85;1.70;;;15.90;76.90;;;;;;4118020;28;20027;-84
2022/08/29 05:09:24;;;;;;;4.75;1.80;;;15.80;76.90;;;;;;4124411;28;20033;-83
2022/08/29 05:11:30;;;;;;;4.63;1.52;;;15.80;76.80;;;;;;4106903;28;20225;-83
2022/08/29 05:13:31;;;;;;;9.20;2.10;;;15.90;76.80;;;;;;4122715;28;20096;-84
2022/08/29 05:15:32;;;;;;;6.43;1.58;;;15.80;76.70;;;;;;4118589;28;20555;-83
2022/08/29 05:17:33;;;;;;;7.00;1.60;;;15.80;76.70;;;;;;4124017;28;20035;-84
2022/08/29 05:19:36;;;;;;;4.63;1.75;;;15.80;76.70;;;;;;4132092;28;20045;-83
2022/08/29 05:21:38;;;;;;;3.08;1.25;;;15.90;76.80;;;;;;4113065;28;20031;-84
2022/08/29 05:23:39;;;;;;;4.35;1.88;;;15.80;76.70;;;;;;4119087;28;20026;-84
2022/08/29 05:25:40;;;;;;;5.18;1.58;;;15.80;76.70;;;;;;4116851;28;20423;-83
2022/08/29 05:27:41;;;;;;;3.03;1.42;;;15.80;76.80;;;;;;4124767;28;20407;-83
2022/08/29 05:29:44;;;;;;;1.80;1.23;;;15.80;76.80;;;;;;4121453;28;20418;-83
2022/08/29 05:31:46;;;;;;;;;;;15.80;76.80;;;;;;4126096;28;20039;-83
2022/08/29 05:33:47;;;;;;;9.55;1.58;;;15.80;76.90;;;;;;4121301;28;19924;-83
2022/08/29 05:35:48;;;;;;;6.22;1.55;;;15.80;76.60;;;;;;4124406;28;20112;-83
2022/08/29 05:37:50;;;;;;;3.30;1.25;;;15.80;76.70;;;;;;4115653;28;20311;-83
2022/08/29 05:39:51;;;;;;;1.98;1.33;;;15.80;76.70;;;;;;4121421;28;20034;-84
2022/08/29 05:41:56;;;;;;;2.17;0.98;;;15.80;76.80;;;;;;4116792;28;20066;-84
2022/08/29 05:43:57;;;;;;;3.67;1.30;;;15.80;76.90;;;;;;4120124;28;20070;-84
2022/08/29 05:46:06;;;;;;;3.13;1.10;;;15.80;76.90;;;;;;4126232;28;20026;-83
2022/08/29 05:48:08;;;;;;;1.92;0.88;;;15.80;77.10;;;;;;4121584;28;20027;-84
2022/08/29 05:50:10;;;;;;;2.67;1.17;;;15.80;77.00;;;;;;4114206;28;20030;-83
2022/08/29 05:52:14;;;;;;;3.17;1.08;;;15.80;77.00;;;;;;4115492;28;20096;-84
2022/08/29 05:54:14;;;;;;;2.50;1.17;;;15.80;77.00;;;;;;4114646;28;20041;-83
2022/08/29 05:56:24;;;;;;;1.80;0.82;;;15.80;77.00;;;;;;4133345;28;20092;-84
2022/08/29 05:58:27;;;;;;;2.63;1.00;;;15.80;77.10;;;;;;4110495;28;20034;-83
2022/08/29 06:00:27;;;;;;;2.45;0.70;;;15.80;77.20;;;;;;4101455;28;21267;-84
2022/08/29 06:02:28;;;;;;;4.57;0.73;;;15.80;77.20;;;;;;4112917;28;20033;-83
2022/08/29 06:04:29;;;;;;;3.78;0.70;;;15.80;77.30;;;;;;4124587;28;20026;-83
2022/08/29 06:06:30;;;;;;;7.05;0.60;;;15.90;77.40;;;;;;4114389;28;20030;-83
2022/08/29 06:08:30;;;;;;;4.55;0.63;;;15.90;77.20;;;;;;4125351;28;20037;-83
2022/08/29 06:10:31;;;;;;;3.97;0.90;;;15.90;77.20;;;;;;4124703;28;20026;-84
2022/08/29 06:12:32;;;;;;;1.13;0.63;;;15.90;77.10;;;;;;4129409;28;20033;-83
2022/08/29 06:14:34;;;;;;;3.90;0.60;;;16.00;77.10;;;;;;4133316;28;20041;-84
2022/08/29 06:16:35;;;;;;;2.20;0.60;;;16.00;77.00;;;;;;4136069;28;20038;-83
2022/08/29 06:18:35;;;;;;;1.65;0.77;;;16.00;76.90;;;;;;4127612;28;20037;-83
2022/08/29 06:20:38;;;;;;;1.67;0.73;;;16.10;76.90;;;;;;4127814;28;20042;-83
2022/08/29 06:22:39;;;;;;;1.90;0.87;;;16.10;76.70;;;;;;4126219;28;20037;-83
2022/08/29 06:24:40;;;;;;;2.33;0.70;;;16.10;76.60;;;;;;4119383;28;20489;-84
2022/08/29 06:26:43;;;;;;;2.35;0.70;;;16.20;76.40;;;;;;4124270;28;20030;-85
2022/08/29 06:28:45;;;;;;;2.17;0.73;;;16.20;76.30;;;;;;4121174;28;20030;-84
2022/08/29 06:31:10;;;;;;;1.90;0.50;;;16.20;76.20;;;;;;4123332;28;20122;-83
2022/08/29 06:33:30;;;;;;;1.08;0.70;;;16.20;76.00;;;;;;4119403;28;20035;-84
2022/08/29 06:35:51;;;;;;;2.55;0.70;;;16.30;75.90;;;;;;4121319;28;20122;-84
2022/08/29 06:38:12;;;;;;;1.80;0.88;;;16.30;75.70;;;;;;4121350;28;20030;-84
2022/08/29 06:40:33;;;;;;;3.13;1.00;;;16.30;75.10;;;;;;4120985;28;20034;-84
2022/08/29 06:42:53;;;;;;;2.35;0.90;;;16.40;75.50;;;;;;4119072;28;20045;-84
2022/08/29 06:44:54;;;;;;;3.25;0.90;;;16.40;74.40;;;;;;4120171;28;20070;-84
2022/08/29 06:46:55;;;;;;;5.53;0.82;;;16.40;74.10;;;;;;4122879;28;20022;-84
2022/08/29 06:48:58;;;;;;;2.53;0.90;;;16.40;73.90;;;;;;4123451;28;20034;-84
2022/08/29 06:51:03;;;;;;;2.42;0.95;;;16.50;73.80;;;;;;4120001;28;20180;-84
2022/08/29 06:53:05;;;;;;;4.47;1.15;;;16.50;73.50;;;;;;4120463;28;20062;-84
2022/08/29 06:55:10;;;;;;;2.97;0.90;;;16.50;73.40;;;;;;4119629;28;20031;-84
2022/08/29 06:57:11;;;;;;;1.83;0.80;;;16.50;73.30;;;;;;4118077;28;20408;-84
2022/08/29 06:59:11;;;;;;;4.28;0.73;;;16.60;73.10;;;;;;4122722;28;20125;-84
2022/08/29 07:01:15;;;;;;;2.83;1.08;;;16.60;72.90;;;;;;4121902;28;20027;-83
2022/08/29 07:03:16;;;;;;;5.50;1.00;;;16.60;72.50;;;;;;4118682;28;20235;-84
2022/08/29 07:05:17;;;;;;;3.30;1.08;;;16.70;72.30;;;;;;4120139;28;20042;-84
2022/08/29 07:07:17;;;;;;;2.55;0.80;;;16.70;72.00;;;;;;4120186;28;20185;-84
2022/08/29 07:09:18;;;;;;;3.88;1.23;;;16.70;72.10;;;;;;4119295;28;20085;-84
2022/08/29 07:11:19;;;;;;;3.50;1.20;;;16.70;71.50;;;;;;4115926;28;20398;-84
2022/08/29 07:13:20;;;;;;;3.92;1.00;;;16.70;71.40;;;;;;4118969;28;20435;-83
2022/08/29 07:15:22;;;;;;;3.28;0.80;;;16.80;71.40;;;;;;4119482;28;20034;-83
2022/08/29 07:17:23;;;;;;;2.47;0.80;;;16.80;71.20;;;;;;4110427;28;20034;-84
2022/08/29 07:19:23;;;;;;;2.78;0.82;;;16.80;71.80;;;;;;4116232;28;20525;-84
2022/08/29 07:21:25;;;;;;;2.03;0.77;;;16.80;70.80;;;;;;4118036;28;20026;-84
2022/08/29 07:23:26;;;;;;;3.90;1.10;;;16.90;70.90;;;;;;4119070;28;20038;-84
2022/08/29 07:25:27;;;;;;;3.53;0.90;;;16.90;70.70;;;;;;4117037;28;20034;-83
2022/08/29 07:27:28;;;;;;;2.15;0.90;;;16.90;70.30;;;;;;4116778;28;20395;-84
2022/08/29 07:29:28;;;;;;;3.40;1.00;;;16.90;70.10;;;;;;4112337;28;20033;-84
2022/08/29 07:31:29;;;;;;;2.95;1.00;;;16.90;70.10;;;;;;4115850;28;20525;-83
2022/08/29 07:33:31;;;;;;;4.05;1.08;;;17.00;69.80;;;;;;4115264;28;20081;-84
2022/08/29 07:35:32;;;;;;;3.17;1.15;;;17.00;69.60;;;;;;4128731;28;20200;-84
2022/08/29 07:37:32;;;;;;;3.95;0.98;;;17.00;69.10;;;;;;4116382;28;20530;-84
2022/08/29 07:39:33;;;;;;;3.47;1.08;;;17.00;69.10;;;;;;4113070;28;20034;-83
2022/08/29 07:41:34;;;;;;;2.53;0.90;;;17.10;68.60;;;;;;4115176;28;20455;-83
2022/08/29 07:43:36;;;;;;;2.35;0.90;;;17.00;68.80;;;;;;4117649;28;20034;-83
2022/08/29 07:45:38;;;;;;;2.20;0.80;;;17.10;68.70;;;;;;4117902;28;20026;-84
2022/08/29 07:47:39;;;;;;;4.50;0.90;;;17.10;68.40;;;;;;4115670;28;20129;-83
2022/08/29 07:49:40;;;;;;;6.78;1.30;;;17.10;67.90;;;;;;4116259;28;20054;-83
2022/08/29 07:51:41;;;;;;;2.67;1.02;;;17.20;67.50;;;;;;4115181;28;20031;-83
2022/08/29 07:53:41;;;;;;;3.20;1.20;;;17.20;67.40;;;;;;4116774;28;20466;-84
2022/08/29 07:55:42;;;;;;;3.95;1.00;;;17.20;67.50;;;;;;4109257;28;20026;-84
2022/08/29 07:57:45;;;;;;;2.10;0.80;;;17.20;67.50;;;;;;4109441;28;20057;-84
2022/08/29 07:59:46;;;;;;;4.22;1.00;;;17.30;67.60;;;;;;4113377;28;20045;-84
2022/08/29 08:01:46;;;;;;;2.35;1.15;;;17.30;67.80;;;;;;4117326;28;20030;-84
2022/08/29 08:03:49;;;;;;;3.20;0.88;;;17.30;67.60;;;;;;4124071;28;20038;-84
2022/08/29 08:05:49;;;;;;;3.00;0.90;;;17.40;67.30;;;;;;4119211;28;20030;-84
2022/08/29 08:07:50;;;;;;;3.08;0.93;;;17.40;66.70;;;;;;4117068;28;20308;-83
2022/08/29 08:09:51;;;;;;;3.92;1.15;;;17.40;67.40;;;;;;4120238;28;20031;-84
2022/08/29 08:11:52;;;;;;;5.28;1.02;;;17.40;66.60;;;;;;4117429;28;20039;-84
2022/08/29 08:13:54;;;;;;;3.40;1.20;;;17.50;66.70;;;;;;4119537;28;20570;-84
2022/08/29 08:15:55;;;;;;;8.83;1.20;;;17.50;66.70;;;;;;4117819;28;20034;-84
2022/08/29 08:17:56;;;;;;;2.47;1.00;;;17.50;66.40;;;;;;4114305;28;20580;-85
2022/08/29 08:19:56;;;;;;;5.53;1.05;;;17.50;66.20;;;;;;4115033;28;20042;-85
2022/08/29 08:21:58;;;;;;;5.55;0.70;;;17.50;66.00;;;;;;4111593;28;20068;-84
2022/08/29 08:23:59;;;;;;;6.88;0.85;;;17.50;66.10;;;;;;4119956;28;20034;-84
2022/08/29 08:26:00;;;;;;;1.67;0.77;;;17.60;66.20;;;;;;4115654;28;20363;-84
2022/08/29 08:28:01;;;;;;;4.35;0.80;;;17.60;65.00;;;;;;4110498;28;20041;-84
2022/08/29 08:30:02;;;;;;;1.45;0.80;;;17.60;64.80;;;;;;4116911;28;20058;-84
2022/08/29 08:32:03;;;;;;;3.35;1.05;;;17.60;64.80;;;;;;4103229;28;20027;-85
2022/08/29 08:34:04;;;;;;;4.43;1.45;;;17.70;64.60;;;;;;4112018;28;20044;-84
2022/08/29 08:36:27;;;;;;;3.53;1.00;;;17.70;65.60;;;;;;4119588;28;20454;-84
2022/08/29 08:38:28;;;;;;;3.00;0.98;;;17.70;64.10;;;;;;4120460;28;20409;-84
2022/08/29 08:40:30;;;;;;;2.67;0.90;;;17.80;64.40;;;;;;4114619;28;20105;-84
2022/08/29 08:42:41;;;;;;;4.70;1.08;;;17.80;64.40;;;;;;4115184;28;20038;-84
2022/08/29 08:45:10;;;;;;;2.25;0.75;;;17.80;64.30;;;;;;4111722;28;20069;-84
2022/08/29 08:47:14;;;;;;;5.20;0.85;;;17.90;63.80;;;;;;4116967;28;20117;-84
2022/08/29 08:49:15;;;;;;;2.33;0.90;;;17.90;63.90;;;;;;4116164;28;20022;-84
2022/08/29 08:51:22;;;;;;;3.78;0.60;;;17.90;63.20;;;;;;4117830;28;20034;-83
2022/08/29 08:53:26;;;;;;;3.13;1.17;;;17.90;62.90;;;;;;4114006;28;20105;-84
2022/08/29 08:55:52;;;;;;;3.38;0.93;;;18.00;62.90;;;;;;4116510;28;20031;-84
2022/08/29 08:58:24;;;;;;;2.55;0.90;;;17.90;62.70;;;;;;4117498;28;20033;-84
2022/08/29 09:00:29;;;;;;;5.68;0.90;;;17.90;61.50;;;;;;4126755;28;20042;-84
2022/08/29 09:02:37;;;;;;;3.47;0.98;;;18.00;62.60;;;;;;4105741;28;20470;-84
2022/08/29 09:05:00;;;;;;;5.57;1.30;;;18.00;62.20;;;;;;4116429;28;20510;-84
2022/08/29 09:07:13;;;;;;;3.20;0.90;;;18.00;62.90;;;;;;4115357;28;20027;-84
2022/08/29 09:09:19;;;;;;;3.00;0.90;;;18.10;62.10;;;;;;4112848;28;20041;-84
2022/08/29 09:11:53;;;;;;;2.63;0.90;;;18.10;61.90;;;;;;4116134;28;20050;-85
2022/08/29 09:14:13;;;;;;;2.92;1.10;;;18.10;61.40;;;;;;4115043;28;20118;-85
2022/08/29 09:16:24;;;;;;;4.82;0.90;;;18.00;61.20;;;;;;4133115;28;20049;-84
2022/08/29 09:18:29;;;;;;;3.53;0.77;;;18.10;60.70;;;;;;4120824;28;20030;-84
2022/08/29 09:20:35;;;;;;;4.05;1.02;;;18.00;61.10;;;;;;4128164;28;20442;-85
2022/08/29 09:22:39;;;;;;;2.10;0.77;;;18.10;60.70;;;;;;4119105;28;20114;-84
2022/08/29 09:24:49;;;;;;;2.88;1.00;;;18.10;60.60;;;;;;4117897;28;20406;-83
2022/08/29 09:26:50;;;;;;;1.88;0.57;;;18.10;60.30;;;;;;4111356;28;20026;-85
2022/08/29 09:28:51;;;;;;;3.60;1.00;;;18.10;60.00;;;;;;4116954;28;20028;-83
2022/08/29 09:31:24;;;;;;;7.50;0.93;;;18.10;59.90;;;;;;4122837;28;20109;-84
2022/08/29 09:33:40;;;;;;;3.67;0.75;;;18.10;59.00;;;;;;4122127;28;20098;-85
2022/08/29 09:35:50;;;;;;;5.03;0.70;;;18.10;59.50;;;;;;4121990;28;20035;-85
2022/08/29 09:37:57;;;;;;;1.65;0.70;;;18.10;59.80;;;;;;4120475;28;20117;-83
2022/08/29 09:40:03;;;;;;;3.50;0.90;;;18.10;59.70;;;;;;4122106;28;20061;-85
2022/08/29 09:42:18;;;;;;;3.33;0.80;;;18.10;59.40;;;;;;4122790;28;20031;-84
2022/08/29 09:44:26;;;;;;;5.88;1.05;;;18.10;59.50;;;;;;4118310;28;20037;-84
2022/08/29 09:46:26;;;;;;;1.33;0.75;;;18.20;59.60;;;;;;4117528;28;20045;-84
2022/08/29 09:48:27;;;;;;;2.25;0.75;;;18.20;59.50;;;;;;4124307;28;20026;-85
2022/08/29 09:50:28;;;;;;;3.85;0.90;;;18.20;59.60;;;;;;4126900;28;20666;-85
2022/08/29 09:52:29;;;;;;;1.65;0.98;;;18.20;59.80;;;;;;4120927;28;20031;-85
2022/08/29 09:54:30;;;;;;;5.20;0.93;;;18.20;59.60;;;;;;4131660;28;20038;-85
2022/08/29 09:56:31;;;;;;;5.78;1.00;;;18.20;59.40;;;;;;4118919;28;20510;-84
2022/08/29 09:58:36;;;;;;;3.70;0.63;;;18.30;59.50;;;;;;4133412;28;20041;-85
2022/08/29 10:00:40;;;;;;;1.45;0.52;;;18.30;59.30;;;;;;4119453;28;20037;-84
2022/08/29 10:02:53;;;;;;;3.67;1.00;;;18.30;59.40;;;;;;4120856;28;20128;-85
2022/08/29 10:04:58;;;;;;;6.35;0.80;;;18.30;59.20;;;;;;4120393;28;20030;-85
2022/08/29 10:07:09;;;;;;;4.28;1.00;;;18.30;59.40;;;;;;4137149;28;20032;-86
2022/08/29 10:09:24;;;;;;;1.33;0.65;;;18.30;58.90;;;;;;4124148;28;20744;-85
2022/08/29 10:11:28;;;;;;;3.35;0.70;;;18.20;59.10;;;;;;4122406;28;20030;-85
2022/08/29 10:13:42;;;;;;;2.47;0.90;;;18.40;59.10;;;;;;4122446;28;20479;-84
2022/08/29 10:15:51;;;;;;;3.97;0.80;;;18.40;58.60;;;;;;4120255;28;20065;-85
2022/08/29 10:18:19;;;;;;;1.52;0.55;;;18.40;58.60;;;;;;4119936;28;20117;-85
2022/08/29 10:20:22;;;;;;;2.78;0.80;;;18.30;57.50;;;;;;4115056;28;20053;-85
2022/08/29 10:22:23;;;;;;;2.33;0.70;;;18.40;58.00;;;;;;4120543;28;20034;-85
2022/08/29 10:24:36;;;;;;;1.38;0.60;;;18.40;58.00;;;;;;4122147;28;20037;-85
2022/08/29 10:26:53;;;;;;;2.83;0.75;;;18.40;57.60;;;;;;4129921;28;20104;-85
2022/08/29 10:29:38;;;;;;;2.05;0.50;;;18.40;56.70;;;;;;4117109;28;20509;-85
2022/08/29 10:31:58;;;;;;;2.97;0.80;;;18.40;55.80;;;;;;4117792;28;20022;-85
2022/08/29 10:34:07;;;;;;;4.47;0.63;;;18.40;56.70;;;;;;4136252;28;20073;-85
2022/08/29 10:36:21;;;;;;;1.25;0.50;;;18.50;56.90;;;;;;4124077;28;20097;-85
2022/08/29 10:38:44;;;;;;;2.22;0.82;;;18.50;56.30;;;;;;4114845;28;20030;-85
2022/08/29 10:40:54;;;;;;;3.55;1.00;;;18.50;55.90;;;;;;4117058;28;20062;-85
2022/08/29 10:43:32;;;;;;;3.08;0.80;;;18.60;56.70;;;;;;4115876;28;20514;-86
2022/08/29 10:45:56;;;;;;;3.83;0.65;;;18.60;56.00;;;;;;4091118;28;20219;-85
2022/08/29 10:48:18;;;;;;;4.47;0.77;;;18.60;56.10;;;;;;4116178;28;20097;-84
2022/08/29 10:50:30;;;;;;;3.20;1.00;;;18.60;56.50;;;;;;4120204;28;20034;-85
2022/08/29 10:52:36;;;;;;;3.40;1.00;;;18.70;55.80;;;;;;4114037;28;20079;-85